Beveren, Belgium
Current Conditions -  °F | °C
As of 12:50 PM on Wednesday 28 Jan 2015 (Local Time) from EBAW Reporting Station
Broken Clouds Broken Clouds  
Wind Chill: 36°   Ceiling: 1600
Heat Index: 45°   Visibility: 6mi
Dew Point: 37°   Wind: 21mph
Humidity: 76%   Direction: 210°SSW
Pressure: 29.62"   Gusts: 35mph
Location:  51.21°N, 4.26°E
Report Text: EBAW 281150Z 21018G30KT 9999 BKN016 07/03 Q1003 TEMPO BKN013
Loading
Personal Weather Stations






























Interactive Weather Map New forecast layout! Learn more

10-Day Weather Forecast

Advertisements
Track Severe Weather on mobile